createdAt,value
2023-05-12T00:01:49.390Z,4.80
2023-05-12T00:04:16.147Z,4.53
2023-05-12T00:06:43.078Z,5.13
2023-05-12T00:09:09.979Z,5.63
2023-05-12T00:11:37.057Z,4.53
2023-05-12T00:14:04.530Z,5.40
2023-05-12T00:16:31.195Z,4.63
2023-05-12T00:18:57.914Z,5.70
2023-05-12T00:21:24.582Z,5.17
2023-05-12T00:23:51.481Z,4.73
2023-05-12T00:26:18.066Z,4.70
2023-05-12T00:28:44.761Z,4.67
2023-05-12T00:31:12.073Z,4.97
2023-05-12T00:33:38.655Z,4.63
2023-05-12T00:36:06.213Z,4.60
2023-05-12T00:38:33.625Z,5.13
2023-05-12T00:41:01.042Z,4.57
2023-05-12T00:43:27.729Z,5.50
2023-05-12T00:45:54.403Z,5.00
2023-05-12T00:48:21.743Z,5.33
2023-05-12T00:50:48.577Z,4.87
2023-05-12T00:53:15.266Z,4.60
2023-05-12T00:55:42.148Z,5.13
2023-05-12T00:58:08.810Z,4.70
2023-05-12T01:00:35.413Z,4.83
2023-05-12T01:03:03.019Z,4.77
2023-05-12T01:05:38.872Z,5.00
2023-05-12T01:08:06.268Z,5.17
2023-05-12T01:10:33.234Z,5.10
2023-05-12T01:12:59.822Z,5.13
2023-05-12T01:15:26.526Z,5.53
2023-05-12T01:17:57.699Z,5.33
2023-05-12T01:20:26.719Z,4.67
2023-05-12T01:22:54.926Z,4.57
2023-05-12T01:25:23.794Z,5.87
2023-05-12T01:27:53.031Z,5.67
2023-05-12T01:30:21.266Z,4.87
2023-05-12T01:32:48.204Z,4.67
2023-05-12T01:35:14.860Z,5.03
2023-05-12T01:37:41.747Z,5.50
2023-05-12T01:40:09.131Z,5.17
2023-05-12T01:42:37.950Z,4.53
2023-05-12T01:45:06.197Z,5.30
2023-05-12T01:47:32.939Z,4.93
2023-05-12T01:49:59.526Z,5.07
2023-05-12T01:52:27.323Z,4.63
2023-05-12T01:54:54.040Z,5.07
2023-05-12T01:57:20.987Z,4.93
2023-05-12T01:59:47.614Z,5.40
2023-05-12T02:02:14.883Z,5.47
2023-05-12T02:04:42.487Z,4.90
2023-05-12T02:07:09.741Z,5.33
2023-05-12T02:09:36.354Z,6.07
2023-05-12T02:12:03.706Z,4.73
2023-05-12T02:14:30.268Z,5.37
2023-05-12T02:16:56.877Z,5.70
2023-05-12T02:19:24.165Z,5.17
2023-05-12T02:21:51.029Z,5.60
2023-05-12T02:24:17.596Z,5.27
2023-05-12T02:26:44.699Z,5.67
2023-05-12T02:29:11.287Z,5.53
2023-05-12T02:31:38.352Z,5.37
2023-05-12T02:34:06.673Z,5.40
2023-05-12T02:36:34.159Z,6.10
2023-05-12T02:39:00.786Z,5.27
2023-05-12T02:41:27.491Z,5.70
2023-05-12T02:43:54.209Z,6.23
2023-05-12T02:46:20.772Z,6.23
2023-05-12T02:48:47.371Z,5.80
2023-05-12T02:51:13.975Z,5.43
2023-05-12T02:53:41.207Z,5.07
2023-05-12T02:56:07.881Z,5.60
2023-05-12T02:58:34.755Z,5.33
2023-05-12T03:01:10.196Z,5.73
2023-05-12T03:03:38.292Z,7.83
2023-05-12T03:06:05.457Z,5.67
2023-05-12T03:08:32.248Z,5.27
2023-05-12T03:10:59.647Z,5.57
2023-05-12T03:13:26.351Z,5.87
2023-05-12T03:15:53.729Z,5.57
2023-05-12T03:18:20.510Z,6.10
2023-05-12T03:20:47.364Z,6.17
2023-05-12T03:23:13.939Z,5.80
2023-05-12T03:25:40.556Z,5.63
2023-05-12T03:28:07.766Z,6.07
2023-05-12T03:30:34.387Z,6.20
2023-05-12T03:33:00.974Z,5.43
2023-05-12T03:35:27.648Z,6.00
2023-05-12T03:37:54.262Z,5.53
2023-05-12T03:40:21.573Z,5.67
2023-05-12T03:42:48.382Z,5.60
2023-05-12T03:45:15.787Z,6.03
2023-05-12T03:47:42.564Z,6.03
2023-05-12T03:50:10.306Z,6.10
2023-05-12T03:52:37.735Z,5.67
2023-05-12T03:55:05.641Z,5.37
2023-05-12T03:57:32.313Z,5.47
2023-05-12T03:59:58.933Z,5.70
2023-05-12T04:02:26.719Z,5.90
2023-05-12T04:04:53.507Z,5.10
2023-05-12T04:07:20.188Z,6.50
2023-05-12T04:09:46.853Z,6.70
2023-05-12T04:12:13.503Z,5.43
2023-05-12T04:14:43.265Z,5.90
2023-05-12T04:17:10.294Z,5.60
2023-05-12T04:19:38.481Z,5.53
2023-05-12T04:22:05.393Z,6.33
2023-05-12T04:24:32.100Z,6.93
2023-05-12T04:26:58.706Z,5.83
2023-05-12T04:29:25.658Z,6.13
2023-05-12T04:31:54.493Z,6.70
2023-05-12T04:34:21.173Z,6.10
2023-05-12T04:36:48.457Z,6.77
2023-05-12T04:39:15.276Z,6.30
2023-05-12T04:41:41.891Z,6.07
2023-05-12T04:44:08.706Z,6.30
2023-05-12T04:46:35.414Z,6.33
2023-05-12T04:49:02.089Z,6.50
2023-05-12T04:51:28.721Z,6.13
2023-05-12T04:53:56.073Z,6.03
2023-05-12T04:56:22.867Z,6.03
2023-05-12T04:58:49.571Z,6.07
2023-05-12T05:01:16.266Z,6.33
2023-05-12T05:03:43.103Z,7.23
2023-05-12T05:06:09.830Z,6.00
2023-05-12T05:08:36.423Z,10.93
2023-05-12T05:11:03.691Z,5.97
2023-05-12T05:13:30.538Z,6.03
2023-05-12T05:15:57.279Z,5.57
2023-05-12T05:18:24.550Z,5.80
2023-05-12T05:20:57.922Z,5.83
2023-05-12T05:23:25.597Z,5.80
2023-05-12T05:25:52.181Z,5.60
2023-05-12T05:28:21.725Z,6.10
2023-05-12T05:30:48.329Z,6.00
2023-05-12T05:33:15.070Z,5.53
2023-05-12T05:35:41.790Z,5.73
2023-05-12T05:38:08.746Z,6.63
2023-05-12T05:40:48.845Z,5.70
2023-05-12T05:43:20.078Z,5.77
2023-05-12T05:45:48.606Z,5.73
2023-05-12T05:48:15.572Z,5.60
2023-05-12T05:50:42.284Z,6.77
2023-05-12T05:53:08.935Z,6.60
2023-05-12T05:55:35.618Z,7.07
2023-05-12T05:58:02.194Z,5.70
2023-05-12T06:00:29.523Z,5.37
2023-05-12T06:02:56.338Z,5.63
2023-05-12T06:05:23.237Z,5.20
2023-05-12T06:07:49.945Z,5.73
2023-05-12T06:10:16.842Z,5.65
2023-05-12T06:12:43.807Z,5.23
2023-05-12T06:15:11.085Z,5.30
2023-05-12T06:17:38.701Z,5.13
2023-05-12T06:20:06.659Z,6.67
2023-05-12T06:22:33.989Z,5.20
2023-05-12T06:25:01.162Z,5.18
2023-05-12T06:27:27.849Z,5.82
2023-05-12T06:29:54.564Z,5.32
2023-05-12T06:32:21.171Z,5.00
2023-05-12T06:34:48.492Z,6.32
2023-05-12T06:37:15.168Z,5.30
2023-05-12T06:39:41.791Z,5.90
2023-05-12T06:42:08.390Z,5.45
2023-05-12T06:44:35.019Z,5.40
2023-05-12T06:47:01.594Z,5.20
2023-05-12T06:49:30.481Z,5.28
2023-05-12T06:51:57.808Z,5.45
2023-05-12T06:54:24.345Z,6.17
2023-05-12T06:56:50.902Z,5.80
2023-05-12T06:59:18.499Z,5.07
2023-05-12T07:01:46.367Z,5.15
2023-05-12T07:04:13.505Z,5.55
2023-05-12T07:06:40.080Z,5.93
2023-05-12T07:09:10.634Z,4.97
2023-05-12T07:11:37.269Z,5.47
2023-05-12T07:14:03.961Z,5.43
2023-05-12T07:16:31.790Z,5.20
2023-05-12T07:18:58.462Z,4.95
2023-05-12T07:21:25.143Z,5.65
2023-05-12T07:23:51.727Z,11.38
2023-05-12T07:26:18.937Z,5.18
2023-05-12T07:28:45.495Z,5.53
2023-05-12T07:31:12.082Z,5.22
2023-05-12T07:33:38.725Z,5.07
2023-05-12T07:36:05.779Z,5.68
2023-05-12T07:38:32.335Z,5.22
2023-05-12T07:40:59.339Z,4.85
2023-05-12T07:43:26.659Z,4.68
2023-05-12T07:45:54.888Z,5.00
2023-05-12T07:48:21.663Z,4.57
2023-05-12T07:50:48.355Z,4.60
2023-05-12T07:53:14.958Z,4.88
2023-05-12T07:55:43.400Z,5.10
2023-05-12T07:58:10.907Z,4.43
2023-05-12T08:00:38.157Z,4.60
2023-05-12T08:03:05.029Z,4.68
2023-05-12T08:05:32.324Z,5.45
2023-05-12T08:07:58.911Z,4.20
2023-05-12T08:10:28.904Z,5.07
2023-05-12T08:12:55.800Z,5.80
2023-05-12T08:15:22.676Z,4.18
2023-05-12T08:17:50.216Z,4.47
2023-05-12T08:20:16.947Z,4.60
2023-05-12T08:22:43.959Z,5.57
2023-05-12T08:25:17.527Z,4.15
2023-05-12T08:27:44.796Z,3.80
2023-05-12T08:30:12.058Z,4.32
2023-05-12T08:32:38.780Z,3.33
2023-05-12T08:35:06.877Z,3.65
2023-05-12T08:37:34.739Z,4.05
2023-05-12T08:40:03.349Z,3.90
2023-05-12T08:42:36.055Z,3.85
2023-05-12T08:45:03.733Z,3.70
2023-05-12T08:47:32.564Z,4.13
2023-05-12T08:50:01.255Z,3.53
2023-05-12T08:52:29.976Z,4.13
2023-05-12T08:54:56.780Z,3.75
2023-05-12T08:57:24.148Z,3.70
2023-05-12T08:59:53.997Z,3.72
2023-05-12T09:02:22.507Z,3.50
2023-05-12T09:04:49.256Z,4.03
2023-05-12T09:07:16.183Z,3.90
2023-05-12T09:09:46.621Z,3.88
2023-05-12T09:12:18.038Z,3.78
2023-05-12T09:14:46.502Z,3.47
2023-05-12T09:17:13.587Z,3.80
2023-05-12T09:19:40.234Z,3.70
2023-05-12T09:22:08.807Z,3.13
2023-05-12T09:24:36.690Z,3.20
2023-05-12T09:27:04.468Z,3.22
2023-05-12T09:29:34.468Z,3.55
2023-05-12T09:32:06.733Z,3.67
2023-05-12T09:34:34.982Z,3.30
2023-05-12T09:37:04.376Z,2.67
2023-05-12T09:39:31.198Z,3.13
2023-05-12T09:41:57.836Z,2.78
2023-05-12T09:44:26.114Z,2.90
2023-05-12T09:46:52.962Z,3.22
2023-05-12T09:49:19.867Z,3.38
2023-05-12T09:51:46.796Z,3.70
2023-05-12T09:54:23.781Z,3.22
2023-05-12T09:56:51.509Z,2.72
2023-05-12T09:59:20.490Z,3.47
2023-05-12T10:01:48.470Z,3.17
2023-05-12T10:04:15.455Z,3.65
2023-05-12T10:06:42.473Z,2.90
2023-05-12T10:09:15.850Z,3.17
2023-05-12T10:11:43.818Z,3.25
2023-05-12T10:14:10.934Z,2.80
2023-05-12T10:16:40.424Z,3.00
2023-05-12T10:19:10.144Z,3.28
2023-05-12T10:21:37.736Z,3.35
2023-05-12T10:24:04.697Z,3.40
2023-05-12T10:26:32.313Z,2.97
2023-05-12T10:28:59.561Z,3.15
2023-05-12T10:31:27.150Z,3.97
2023-05-12T10:33:57.884Z,2.97
2023-05-12T10:36:25.594Z,3.38
2023-05-12T10:38:52.218Z,4.05
2023-05-12T10:41:30.247Z,3.78
2023-05-12T10:44:01.130Z,3.25
2023-05-12T10:46:27.991Z,3.22
2023-05-12T10:48:56.149Z,3.25
2023-05-12T10:51:25.771Z,3.35
2023-05-12T10:53:57.009Z,3.13
2023-05-12T10:56:25.805Z,3.55
2023-05-12T10:59:11.244Z,2.92
2023-05-12T11:01:39.901Z,3.75
2023-05-12T11:04:15.153Z,2.97
2023-05-12T11:06:44.835Z,3.40
2023-05-12T11:09:13.253Z,3.38
2023-05-12T11:11:40.560Z,3.25
2023-05-12T11:14:07.947Z,3.35
2023-05-12T11:16:40.767Z,3.88
2023-05-12T11:19:07.449Z,3.10
2023-05-12T11:21:34.541Z,2.95
2023-05-12T11:24:02.655Z,3.35
2023-05-12T11:26:30.396Z,3.22
2023-05-12T11:28:57.690Z,2.92
2023-05-12T11:31:24.725Z,3.33
2023-05-12T11:36:36.768Z,2.70
2023-05-12T11:39:05.380Z,3.05
2023-05-12T11:41:33.029Z,3.10
2023-05-12T11:43:59.619Z,2.92
2023-05-12T11:46:27.225Z,2.80
2023-05-12T11:48:57.822Z,2.95
2023-05-12T11:51:25.087Z,2.95
2023-05-12T11:53:52.703Z,2.78
2023-05-12T11:56:19.926Z,3.53
2023-05-12T11:58:54.402Z,3.28
2023-05-12T12:01:21.075Z,2.67
2023-05-12T12:03:49.338Z,3.00
2023-05-12T12:06:16.298Z,2.92
2023-05-12T12:08:50.541Z,3.00
2023-05-12T12:11:18.217Z,3.05
2023-05-12T12:13:48.345Z,3.05
2023-05-12T12:16:15.776Z,3.10
2023-05-12T12:18:42.548Z,2.97
2023-05-12T12:21:09.159Z,2.38
2023-05-12T12:23:47.697Z,3.22
2023-05-12T12:26:17.024Z,3.25
2023-05-12T12:28:45.314Z,3.10
2023-05-12T12:31:12.290Z,3.45
2023-05-12T12:33:39.665Z,3.13
2023-05-12T12:36:06.636Z,2.97
2023-05-12T12:38:33.186Z,2.83
2023-05-12T12:40:59.966Z,3.20
2023-05-12T12:43:26.651Z,2.92
2023-05-12T12:45:54.088Z,3.03
2023-05-12T12:48:20.704Z,2.72
2023-05-12T12:50:47.984Z,2.63
2023-05-12T12:53:14.557Z,3.15
2023-05-12T12:55:41.307Z,3.50
2023-05-12T12:58:08.385Z,3.05
2023-05-12T13:00:35.677Z,2.95
2023-05-12T13:03:02.405Z,2.95
2023-05-12T13:05:29.034Z,2.90
2023-05-12T13:07:56.236Z,2.60
2023-05-12T13:10:22.818Z,2.58
2023-05-12T13:12:49.509Z,3.10
2023-05-12T13:15:19.393Z,2.60
2023-05-12T13:17:46.369Z,2.65
2023-05-12T13:20:13.589Z,2.53
2023-05-12T13:22:40.273Z,2.25
2023-05-12T13:25:08.275Z,2.47
2023-05-12T13:27:34.959Z,2.70
2023-05-12T13:30:03.880Z,2.75
2023-05-12T13:32:30.661Z,2.50
2023-05-12T13:34:57.253Z,2.55
2023-05-12T13:37:23.961Z,2.45
2023-05-12T13:39:50.731Z,2.35
2023-05-12T13:42:18.007Z,2.83
2023-05-12T13:44:44.810Z,2.50
2023-05-12T13:47:11.353Z,2.85
2023-05-12T13:49:38.371Z,2.85
2023-05-12T13:52:05.708Z,3.17
2023-05-12T13:54:32.531Z,2.65
2023-05-12T13:56:59.241Z,2.70
2023-05-12T13:59:26.807Z,2.85
2023-05-12T14:01:54.217Z,2.58
2023-05-12T14:04:20.776Z,2.50
2023-05-12T14:06:47.601Z,2.50
2023-05-12T14:09:14.219Z,2.45
2023-05-12T14:11:40.798Z,2.65
2023-05-12T14:14:07.482Z,2.30
2023-05-12T14:16:34.775Z,2.78
2023-05-12T14:19:01.415Z,2.45
2023-05-12T14:21:28.271Z,2.40
2023-05-12T14:23:54.858Z,2.65
2023-05-12T14:26:21.807Z,2.10
2023-05-12T14:28:48.586Z,2.50
2023-05-12T14:31:15.493Z,2.92
2023-05-12T14:33:42.831Z,2.22
2023-05-12T14:36:10.049Z,2.33
2023-05-12T14:38:37.194Z,2.38
2023-05-12T14:41:03.782Z,2.33
2023-05-12T14:43:30.397Z,2.42
2023-05-12T14:45:57.075Z,2.88
2023-05-12T14:48:25.384Z,2.53
2023-05-12T14:50:52.892Z,2.35
2023-05-12T14:53:19.523Z,2.47
2023-05-12T14:55:46.733Z,3.25
2023-05-12T14:58:13.698Z,2.75
2023-05-12T15:00:40.368Z,2.55
2023-05-12T15:03:07.226Z,2.60
2023-05-12T15:05:52.713Z,2.90
2023-05-12T15:08:20.989Z,2.65
2023-05-12T15:10:47.862Z,2.30
2023-05-12T15:13:17.023Z,2.40
2023-05-12T15:15:44.027Z,2.30
2023-05-12T15:18:10.729Z,2.47
2023-05-12T15:20:37.822Z,3.60
2023-05-12T15:23:04.549Z,2.13
2023-05-12T15:25:32.171Z,2.60
2023-05-12T15:27:58.756Z,2.17
2023-05-12T15:30:25.413Z,2.63
2023-05-12T15:32:52.074Z,3.00
2023-05-12T15:35:18.737Z,2.45
2023-05-12T15:37:45.384Z,2.90
2023-05-12T15:40:13.171Z,2.80
2023-05-12T15:42:41.194Z,2.55
2023-05-12T15:45:08.785Z,2.28
2023-05-12T15:47:35.757Z,2.83
2023-05-12T15:50:03.005Z,2.38
2023-05-12T15:52:29.807Z,2.13
2023-05-12T15:54:56.541Z,2.58
2023-05-12T15:57:23.103Z,2.88
2023-05-12T15:59:51.977Z,2.40
2023-05-12T16:02:18.729Z,2.28
2023-05-12T16:04:45.402Z,3.17
2023-05-12T16:07:11.984Z,2.90
2023-05-12T16:09:38.536Z,2.60
2023-05-12T16:12:07.374Z,2.50
2023-05-12T16:14:35.282Z,2.42
2023-05-12T16:17:05.321Z,2.97
2023-05-12T16:19:31.945Z,2.17
2023-05-12T16:21:59.312Z,2.90
2023-05-12T16:24:27.891Z,2.80
2023-05-12T16:26:54.700Z,3.00
2023-05-12T16:29:21.710Z,2.42
2023-05-12T16:31:48.497Z,2.80
2023-05-12T16:34:16.625Z,2.72
2023-05-12T16:36:43.265Z,2.60
2023-05-12T16:39:09.893Z,2.97
2023-05-12T16:41:36.768Z,2.78
2023-05-12T16:44:03.494Z,2.80
2023-05-12T16:46:31.954Z,3.13
2023-05-12T16:48:59.296Z,2.88
2023-05-12T16:51:29.674Z,3.03
2023-05-12T16:53:56.642Z,2.47
2023-05-12T16:56:23.281Z,2.72
2023-05-12T16:58:51.004Z,4.07
2023-05-12T17:01:17.709Z,3.13
2023-05-12T17:03:44.801Z,3.20
2023-05-12T17:06:12.424Z,2.40
2023-05-12T17:08:40.112Z,3.00
2023-05-12T17:11:09.062Z,2.35
2023-05-12T17:13:36.759Z,2.70
2023-05-12T17:16:03.992Z,3.08
2023-05-12T17:18:30.835Z,3.05
2023-05-12T17:20:58.217Z,2.90
2023-05-12T17:23:24.868Z,2.70
2023-05-12T17:25:52.742Z,2.60
2023-05-12T17:28:20.399Z,2.75
2023-05-12T17:30:47.838Z,2.70
2023-05-12T17:33:14.964Z,3.42
2023-05-12T17:35:41.591Z,6.32
2023-05-12T17:38:08.314Z,4.63
2023-05-12T17:40:34.975Z,5.60
2023-05-12T17:43:02.451Z,3.58
2023-05-12T17:45:29.345Z,4.20
2023-05-12T17:47:56.270Z,5.93
2023-05-12T17:50:22.985Z,6.85
2023-05-12T17:52:49.736Z,6.40
2023-05-12T17:55:16.779Z,7.57
2023-05-12T17:57:43.386Z,4.35
2023-05-12T18:00:12.280Z,8.43
2023-05-12T18:02:40.384Z,3.67
2023-05-12T18:05:08.441Z,2.88
2023-05-12T18:07:35.107Z,6.35
2023-05-12T18:10:01.996Z,7.57
2023-05-12T18:12:28.588Z,4.43
2023-05-12T18:14:56.042Z,5.78
2023-05-12T18:17:23.592Z,3.47
2023-05-12T18:19:50.359Z,3.45
2023-05-12T18:22:17.698Z,7.25
2023-05-12T18:24:44.623Z,2.90
2023-05-12T18:27:11.501Z,3.42
2023-05-12T18:29:38.466Z,6.68
2023-05-12T18:32:05.403Z,6.38
2023-05-12T18:34:32.677Z,10.05
2023-05-12T18:36:59.279Z,4.70
2023-05-12T18:39:26.141Z,10.75
2023-05-12T18:41:53.778Z,5.78
2023-05-12T18:44:20.386Z,4.10
2023-05-12T18:46:47.060Z,4.35
2023-05-12T18:49:13.691Z,4.22
2023-05-12T18:51:40.926Z,4.43
2023-05-12T18:54:07.509Z,5.20
2023-05-12T18:56:34.167Z,3.63
2023-05-12T18:59:00.882Z,4.63
2023-05-12T19:01:27.933Z,4.03
2023-05-12T19:03:54.728Z,4.03
2023-05-12T19:06:21.509Z,3.40
2023-05-12T19:08:48.783Z,3.92
2023-05-12T19:11:15.586Z,3.83
2023-05-12T19:13:44.498Z,5.10
2023-05-12T19:16:11.360Z,3.20
2023-05-12T19:18:38.016Z,3.92
2023-05-12T19:21:04.637Z,3.78
2023-05-12T19:23:31.291Z,3.08
2023-05-12T19:25:58.800Z,3.78
2023-05-12T19:28:25.863Z,4.22
2023-05-12T19:30:54.140Z,4.10
2023-05-12T19:33:20.957Z,4.30
2023-05-12T19:35:47.750Z,4.13
2023-05-12T19:38:14.502Z,3.88
2023-05-12T19:40:41.142Z,4.68
2023-05-12T19:43:09.930Z,5.35
2023-05-12T19:45:36.611Z,4.25
2023-05-12T19:48:03.389Z,3.67
2023-05-12T19:50:30.157Z,4.43
2023-05-12T19:52:56.785Z,4.53
2023-05-12T19:55:23.634Z,3.88
2023-05-12T19:57:51.197Z,3.88
2023-05-12T20:00:21.392Z,3.95
2023-05-12T20:02:48.336Z,4.15
2023-05-12T20:05:15.089Z,4.05
2023-05-12T20:07:42.329Z,3.95
2023-05-12T20:10:09.759Z,4.20
2023-05-12T20:12:37.247Z,3.67
2023-05-12T20:15:06.124Z,3.55
2023-05-12T20:17:33.445Z,3.58
2023-05-12T20:20:03.343Z,3.53
2023-05-12T20:22:30.080Z,3.60
2023-05-12T20:24:58.974Z,4.18
2023-05-12T20:27:25.653Z,6.20
2023-05-12T20:29:52.369Z,3.60
2023-05-12T20:32:19.113Z,4.78
2023-05-12T20:34:46.818Z,4.07
2023-05-12T20:37:14.327Z,3.72
2023-05-12T20:39:41.313Z,4.82
2023-05-12T20:42:09.432Z,4.17
2023-05-12T20:44:36.677Z,3.83
2023-05-12T20:47:03.505Z,4.35
2023-05-12T20:49:30.238Z,4.87
2023-05-12T20:51:57.607Z,3.63
2023-05-12T20:54:24.431Z,4.13
2023-05-12T20:56:51.087Z,4.83
2023-05-12T20:59:17.894Z,4.70
2023-05-12T21:01:44.743Z,3.83
2023-05-12T21:04:11.508Z,4.40
2023-05-12T21:06:38.272Z,4.07
2023-05-12T21:09:05.672Z,4.43
2023-05-12T21:11:32.397Z,3.90
2023-05-12T21:13:59.116Z,4.70
2023-05-12T21:16:25.921Z,3.33
2023-05-12T21:18:52.774Z,5.00
2023-05-12T21:21:19.442Z,4.33
2023-05-12T21:23:46.072Z,3.67
2023-05-12T21:26:13.438Z,4.03
2023-05-12T21:28:40.111Z,4.68
2023-05-12T21:31:06.907Z,4.00
2023-05-12T21:33:33.669Z,4.18
2023-05-12T21:36:00.344Z,4.70
2023-05-12T21:38:27.016Z,4.73
2023-05-12T21:40:55.566Z,5.50
2023-05-12T21:43:22.959Z,4.25
2023-05-12T21:45:49.741Z,3.88
2023-05-12T21:48:16.934Z,4.32
2023-05-12T21:50:43.659Z,4.38
2023-05-12T21:53:10.323Z,4.60
2023-05-12T21:55:37.010Z,4.97
2023-05-12T21:58:03.675Z,4.70
2023-05-12T22:00:31.071Z,3.77
2023-05-12T22:02:57.748Z,4.83
2023-05-12T22:05:24.509Z,5.65
2023-05-12T22:07:51.151Z,5.13
2023-05-12T22:10:18.046Z,5.17
2023-05-12T22:12:45.248Z,5.13
2023-05-12T22:15:12.108Z,5.60
2023-05-12T22:17:39.660Z,4.80
2023-05-12T22:20:08.458Z,5.23
2023-05-12T22:22:35.159Z,5.50
2023-05-12T22:25:03.011Z,5.07
2023-05-12T22:27:29.735Z,4.87
2023-05-12T22:29:56.445Z,4.80
2023-05-12T22:32:23.334Z,5.75
2023-05-12T22:34:53.074Z,4.80
2023-05-12T22:37:20.055Z,4.30
2023-05-12T22:39:46.804Z,4.10
2023-05-12T22:42:13.897Z,4.17
2023-05-12T22:44:40.563Z,4.70
2023-05-12T22:47:07.432Z,3.90
2023-05-12T22:49:34.151Z,4.53
2023-05-12T22:52:01.536Z,4.73
2023-05-12T22:54:28.212Z,4.63
2023-05-12T22:56:55.274Z,4.40
2023-05-12T22:59:21.941Z,4.30
2023-05-12T23:01:48.726Z,4.80
2023-05-12T23:04:15.514Z,4.40
2023-05-12T23:06:42.248Z,4.23
2023-05-12T23:09:09.565Z,4.93
2023-05-12T23:11:36.364Z,5.00
2023-05-12T23:14:03.025Z,4.77
2023-05-12T23:16:29.798Z,5.03
2023-05-12T23:18:56.509Z,5.20
2023-05-12T23:21:23.236Z,5.60
2023-05-12T23:23:49.938Z,5.03
2023-05-12T23:26:17.402Z,4.50
2023-05-12T23:28:45.212Z,4.67
2023-05-12T23:31:12.029Z,4.87
2023-05-12T23:33:38.761Z,4.13
2023-05-12T23:36:06.057Z,4.33
2023-05-12T23:38:32.695Z,4.03
2023-05-12T23:40:59.455Z,4.90
2023-05-12T23:43:27.317Z,4.40
2023-05-12T23:45:54.117Z,5.20
2023-05-12T23:48:20.874Z,4.33
2023-05-12T23:50:47.618Z,5.30
2023-05-12T23:53:14.236Z,4.00
2023-05-12T23:55:40.965Z,4.27
2023-05-12T23:58:09.965Z,4.90
